This is the latest recevied weather packets stored in our database for station/object SQ5DN-4. If no packets are shown the sender has not sent any weather packets the latest 1 day(s).
| Time | Temp. | Humidity | Pressure | Rain* | Wind** | Luminosity | Snow |
|---|---|---|---|---|---|---|---|
| 1778083437 | 24.44° C | 46% | 1002 hPa | - | - | - | - |
| 1778082877 | 24.44° C | 45% | 1002 hPa | - | - | - | - |
| 1778082277 | 25° C | 44% | 1002 hPa | - | - | - | - |
| 1778081719 | 25° C | 44% | 1002 hPa | - | - | - | - |
| 1778081212 | 25° C | 44% | 1002 hPa | - | - | - | - |
| 1778080667 | 25° C | 44% | 1001 hPa | - | - | - | - |
| 1778080147 | 24.44° C | 46% | 1002 hPa | - | - | - | - |
| 1778079607 | 24.44° C | 46% | 1002 hPa | - | - | - | - |
| 1778079007 | 25° C | 44% | 1002 hPa | - | - | - | - |
| 1778078417 | 24.44° C | 45% | 1001 hPa | - | - | - | - |
| 1778077372 | 25.56° C | 42% | 1002 hPa | - | - | - | - |
| 1778076807 | 24.44° C | 44% | 1001 hPa | - | - | - | - |
| 1778076292 | 25° C | 43% | 1002 hPa | - | - | - | - |
| 1778075757 | 25° C | 43% | 1002 hPa | - | - | - | - |
| 1778075192 | 24.44° C | 45% | 1001 hPa | - | - | - | - |
| 1778074612 | 24.44° C | 45% | 1001 hPa | - | - | - | - |
| 1778073107 | 25.56° C | 43% | 1001 hPa | - | - | - | - |
| 1778072537 | 25° C | 44% | 1001 hPa | - | - | - | - |
| 1778071957 | 25° C | 43% | 1002 hPa | - | - | - | - |
| 1778071467 | 24.44° C | 44% | 1002 hPa | - | - | - | - |
| 1778070442 | 24.44° C | 46% | 1002 hPa | - | - | - | - |
| 1778069857 | 23.33° C | 46% | 1002 hPa | - | - | - | - |
| 1778069332 | 23.33° C | 46% | 1002 hPa | - | - | - | - |
| 1778068737 | 23.33° C | 46% | 1001 hPa | - | - | - | - |
| 1778068217 | 23.33° C | 47% | 1002 hPa | - | - | - | - |
* Rain since midnight (hover to see other rain measurements)
** Current wind speed in m/s (hover to see current wind gust speed)